Time,TemperatureF,DewpointF,PressureIn,WindDirection,WindDirectionDegrees,WindSpeedMPH,WindSpeedGustMPH,Humidity,HourlyPrecipIn,Conditions,Clouds,dailyrainin,SoftwareType,DateUTC
2013-05-07 00:01:00,54.0,54.0,-100.00,ENE,63,0.0,0.0,100,0.00,,,0.00,,2013-05-07 07:01:00,
2013-05-07 00:11:00,54.0,54.0,-100.00,ENE,63,0.0,0.0,100,0.00,,,0.00,,2013-05-07 07:11:00,
2013-05-07 00:22:00,53.0,53.0,-100.00,ENE,63,0.0,0.0,100,0.00,,,0.00,,2013-05-07 07:22:00,
2013-05-07 00:31:00,53.0,53.0,-100.00,ENE,63,0.0,0.0,100,0.00,,,0.00,,2013-05-07 07:31:00,
2013-05-07 00:42:00,53.0,53.0,-100.00,ENE,63,0.0,0.0,100,0.00,,,0.00,,2013-05-07 07:42:00,
2013-05-07 00:52:00,52.0,52.0,-100.00,ENE,63,0.0,0.0,100,0.00,,,0.00,,2013-05-07 07:52:00,
2013-05-07 01:02:00,52.0,52.0,-100.00,ENE,63,0.0,0.0,100,0.00,,,0.00,,2013-05-07 08:02:00,
2013-05-07 01:11:00,52.0,52.0,-100.00,ENE,63,0.0,0.0,100,0.00,,,0.00,,2013-05-07 08:11:00,
2013-05-07 01:21:00,51.0,51.0,-100.00,ENE,63,0.0,0.0,100,0.00,,,0.00,,2013-05-07 08:21:00,
2013-05-07 01:31:00,51.0,51.0,-100.00,ENE,63,0.0,0.0,100,0.00,,,0.00,,2013-05-07 08:31:00,
2013-05-07 01:41:00,51.0,51.0,-100.00,ENE,63,0.0,0.0,100,0.00,,,0.00,,2013-05-07 08:41:00,
2013-05-07 01:52:00,50.0,50.0,-100.00,ENE,63,0.0,0.0,100,0.00,,,0.00,,2013-05-07 08:52:00,
2013-05-07 02:01:00,50.0,50.0,-100.00,ENE,63,0.0,0.0,100,0.00,,,0.00,,2013-05-07 09:01:00,
2013-05-07 02:11:00,50.0,50.0,-100.00,ENE,63,0.0,0.0,100,0.00,,,0.00,,2013-05-07 09:11:00,
2013-05-07 02:22:00,50.0,50.0,-100.00,ENE,63,0.0,0.0,100,0.00,,,0.00,,2013-05-07 09:22:00,
2013-05-07 02:33:00,49.0,49.0,-100.00,ENE,63,0.0,0.0,100,0.00,,,0.00,,2013-05-07 09:33:00,
2013-05-07 02:42:00,49.0,49.0,-100.00,ENE,63,0.0,0.0,100,0.00,,,0.00,,2013-05-07 09:42:00,
2013-05-07 02:52:00,48.0,48.0,-100.00,ENE,63,0.0,0.0,100,0.00,,,0.00,,2013-05-07 09:52:00,
2013-05-07 03:02:00,48.0,48.0,-100.00,ENE,63,0.0,0.0,100,0.00,,,0.00,,2013-05-07 10:02:00,
2013-05-07 03:12:00,48.0,48.0,-100.00,ENE,63,0.0,0.0,100,0.00,,,0.00,,2013-05-07 10:12:00,
2013-05-07 03:22:00,47.0,47.0,-100.00,ENE,63,0.0,0.0,100,0.00,,,0.00,,2013-05-07 10:22:00,
2013-05-07 03:32:00,47.0,47.0,-100.00,ENE,63,0.0,0.0,100,0.00,,,0.00,,2013-05-07 10:32:00,
2013-05-07 03:42:00,49.0,49.0,-100.00,ENE,63,0.0,0.0,100,0.00,,,0.00,,2013-05-07 10:42:00,
2013-05-07 03:52:00,49.0,49.0,-100.00,ENE,63,0.0,0.0,100,0.00,,,0.00,,2013-05-07 10:52:00,
2013-05-07 04:02:00,48.0,48.0,-100.00,ENE,63,0.0,0.0,100,0.00,,,0.00,,2013-05-07 11:02:00,
2013-05-07 04:11:00,48.0,48.0,-100.00,ENE,63,0.0,0.0,100,0.00,,,0.00,,2013-05-07 11:11:00,
2013-05-07 04:21:00,46.0,46.0,-100.00,ENE,63,0.0,0.0,100,0.00,,,0.00,,2013-05-07 11:21:00,
2013-05-07 04:31:00,46.0,46.0,-100.00,ENE,63,0.0,0.0,100,0.00,,,0.00,,2013-05-07 11:31:00,
2013-05-07 04:42:00,46.0,46.0,-100.00,ENE,63,0.0,0.0,100,0.00,,,0.00,,2013-05-07 11:42:00,
2013-05-07 04:52:00,47.0,47.0,-100.00,ENE,63,0.0,0.0,100,0.00,,,0.00,,2013-05-07 11:52:00,
2013-05-07 05:01:00,47.0,47.0,-100.00,ENE,63,0.0,0.0,100,0.00,,,0.00,,2013-05-07 12:01:00,
2013-05-07 05:11:00,47.0,47.0,-100.00,ENE,63,0.0,0.0,100,0.00,,,0.00,,2013-05-07 12:11:00,
2013-05-07 05:21:00,48.0,48.0,-100.00,ENE,63,0.0,0.0,100,0.00,,,0.00,,2013-05-07 12:21:00,
2013-05-07 05:32:00,48.0,48.0,-100.00,ENE,63,0.0,0.0,100,0.00,,,0.00,,2013-05-07 12:32:00,
2013-05-07 05:41:00,48.0,48.0,-100.00,ENE,63,0.0,0.0,100,0.00,,,0.00,,2013-05-07 12:41:00,
2013-05-07 05:52:00,49.0,49.0,-100.00,ENE,63,0.0,0.0,100,0.00,,,0.00,,2013-05-07 12:52:00,
2013-05-07 06:01:00,49.0,49.0,-100.00,ENE,63,0.0,0.0,100,0.00,,,0.00,,2013-05-07 13:01:00,
2013-05-07 06:11:00,49.0,49.0,-100.00,ENE,63,0.0,0.0,100,0.00,,,0.00,,2013-05-07 13:11:00,
2013-05-07 06:21:00,50.0,50.0,-100.00,ENE,63,0.0,0.0,100,0.00,,,0.00,,2013-05-07 13:21:00,
2013-05-07 06:32:00,50.0,50.0,-100.00,ENE,63,0.0,0.0,100,0.00,,,0.00,,2013-05-07 13:32:00,
2013-05-07 06:42:00,50.0,50.0,-100.00,ENE,63,0.0,0.0,100,0.00,,,0.00,,2013-05-07 13:42:00,
2013-05-07 06:52:00,51.0,51.0,-100.00,ENE,63,0.0,0.0,100,0.00,,,0.00,,2013-05-07 13:52:00,
2013-05-07 07:01:00,51.0,51.0,-100.00,ENE,63,0.0,0.0,100,0.00,,,0.00,,2013-05-07 14:01:00,
2013-05-07 07:11:00,51.0,51.0,-100.00,ENE,63,0.0,0.0,100,0.00,,,0.00,,2013-05-07 14:11:00,
2013-05-07 07:21:00,52.0,52.0,-100.00,ENE,63,0.0,0.0,100,0.00,,,0.00,,2013-05-07 14:21:00,
2013-05-07 07:31:00,52.0,52.0,-100.00,ENE,63,0.0,0.0,100,0.00,,,0.00,,2013-05-07 14:31:00,
2013-05-07 07:42:00,52.0,52.0,-100.00,ENE,63,0.0,0.0,100,0.00,,,0.00,,2013-05-07 14:42:00,
2013-05-07 07:52:00,52.0,52.0,-100.00,ENE,63,0.0,0.0,100,0.00,,,0.00,,2013-05-07 14:52:00,
2013-05-07 08:01:00,53.0,53.0,-100.00,ENE,63,0.0,0.0,100,0.00,,,0.00,,2013-05-07 15:01:00,
2013-05-07 08:11:00,53.0,53.0,-100.00,ENE,63,0.0,0.0,100,0.00,,,0.00,,2013-05-07 15:11:00,
2013-05-07 08:21:00,53.0,53.0,-100.00,ENE,63,0.0,0.0,100,0.00,,,0.00,,2013-05-07 15:21:00,
2013-05-07 08:32:00,53.0,53.0,-100.00,ENE,63,0.0,0.0,100,0.00,,,0.00,,2013-05-07 15:32:00,
2013-05-07 08:42:00,53.0,53.0,-100.00,ENE,63,0.0,0.0,100,0.00,,,0.00,,2013-05-07 15:42:00,
2013-05-07 08:53:00,53.0,53.0,-100.00,ENE,63,0.0,0.0,100,0.00,,,0.00,,2013-05-07 15:53:00,
2013-05-07 09:02:00,54.0,54.0,-100.00,ENE,63,0.0,0.0,100,0.00,,,0.00,,2013-05-07 16:02:00,
2013-05-07 09:12:00,55.0,55.0,-100.00,ENE,63,0.0,0.0,100,0.00,,,0.00,,2013-05-07 16:12:00,
2013-05-07 09:22:00,55.0,55.0,-100.00,ENE,63,0.0,0.0,100,0.00,,,0.00,,2013-05-07 16:22:00,
2013-05-07 09:32:00,55.0,55.0,-100.00,ENE,63,0.0,0.0,100,0.00,,,0.00,,2013-05-07 16:32:00,
2013-05-07 09:41:00,55.0,55.0,-100.00,ENE,63,0.0,0.0,100,0.00,,,0.00,,2013-05-07 16:41:00,
2013-05-07 09:52:00,55.0,55.0,-100.00,ENE,63,0.0,0.0,100,0.00,,,0.00,,2013-05-07 16:52:00,
2013-05-07 10:01:00,54.0,54.0,-100.00,ENE,63,0.0,0.0,100,0.00,,,0.00,,2013-05-07 17:01:00,
2013-05-07 10:11:00,56.0,56.0,-100.00,ENE,63,0.0,0.0,100,0.00,,,0.00,,2013-05-07 17:11:00,
2013-05-07 10:21:00,56.0,56.0,-100.00,ENE,63,0.0,0.0,100,0.00,,,0.00,,2013-05-07 17:21:00,
2013-05-07 10:31:00,56.0,56.0,-100.00,ENE,63,0.0,0.0,100,0.00,,,0.00,,2013-05-07 17:31:00,
2013-05-07 10:41:00,55.0,55.0,-100.00,ENE,63,0.0,0.0,100,0.00,,,0.00,,2013-05-07 17:41:00,
2013-05-07 10:52:00,55.0,55.0,-100.00,ENE,63,0.0,0.0,100,0.00,,,0.00,,2013-05-07 17:52:00,
2013-05-07 11:01:00,57.0,57.0,-100.00,ENE,63,0.0,0.0,100,0.00,,,0.00,,2013-05-07 18:01:00,
2013-05-07 11:11:00,58.0,58.0,-100.00,ENE,63,0.0,0.0,100,0.00,,,0.00,,2013-05-07 18:11:00,
2013-05-07 11:31:00,57.0,57.0,-100.00,ENE,63,0.0,0.0,100,0.00,,,0.00,,2013-05-07 18:31:00,
2013-05-07 11:52:00,61.0,61.0,-100.00,ENE,63,0.0,0.0,100,0.00,,,0.00,,2013-05-07 18:52:00,
2013-05-07 12:01:00,62.0,62.0,-100.00,ENE,63,0.0,0.0,100,0.00,,,0.00,,2013-05-07 19:01:00,
2013-05-07 12:21:00,63.0,63.0,-100.00,ENE,63,0.0,0.0,100,0.00,,,0.00,,2013-05-07 19:21:00,
2013-05-07 12:31:00,61.0,61.0,-100.00,ENE,63,0.0,0.0,100,0.00,,,0.00,,2013-05-07 19:31:00,
2013-05-07 13:01:00,67.0,67.0,-100.00,ENE,63,0.0,0.0,100,0.00,,,0.00,,2013-05-07 20:01:00,
2013-05-07 13:21:00,69.0,69.0,-100.00,ENE,63,0.0,0.0,100,0.00,,,0.00,,2013-05-07 20:21:00,
2013-05-07 13:32:00,67.0,67.0,-100.00,ENE,63,0.0,0.0,100,0.00,,,0.00,,2013-05-07 20:32:00,
2013-05-07 13:51:00,67.0,67.0,-100.00,ENE,63,0.0,0.0,100,0.00,,,0.00,,2013-05-07 20:51:00,
2013-05-07 14:01:00,68.0,68.0,-100.00,ENE,63,0.0,0.0,100,0.00,,,0.00,,2013-05-07 21:01:00,
2013-05-07 14:21:00,69.0,69.0,-100.00,ENE,63,0.0,0.0,100,0.00,,,0.00,,2013-05-07 21:21:00,
2013-05-07 14:32:00,68.0,68.0,-100.00,ENE,63,0.0,0.0,100,0.00,,,0.00,,2013-05-07 21:32:00,
2013-05-07 14:53:00,69.0,69.0,-100.00,ENE,63,0.0,0.0,100,0.00,,,0.00,,2013-05-07 21:53:00,
2013-05-07 15:02:00,70.0,70.0,-100.00,ENE,63,0.0,0.0,100,0.00,,,0.00,,2013-05-07 22:02:00,
2013-05-07 15:32:00,69.0,69.0,-100.00,ENE,63,0.0,0.0,100,0.00,,,0.00,,2013-05-07 22:32:00,
2013-05-07 15:42:00,70.0,70.0,-100.00,ENE,63,0.0,0.0,100,0.00,,,0.00,,2013-05-07 22:42:00,
2013-05-07 16:01:00,70.0,70.0,-100.00,ENE,63,0.0,0.0,100,0.00,,,0.00,,2013-05-07 23:01:00,
2013-05-07 16:32:00,71.0,71.0,-100.00,ENE,63,0.0,0.0,100,0.00,,,0.00,,2013-05-07 23:32:00,
2013-05-07 16:41:00,72.0,72.0,-100.00,ENE,63,0.0,0.0,100,0.00,,,0.00,,2013-05-07 23:41:00,
2013-05-07 17:01:00,71.0,71.0,-100.00,ENE,63,0.0,0.0,100,0.00,,,0.00,,2013-05-08 00:01:00,
2013-05-07 17:11:00,71.0,71.0,-100.00,ENE,63,0.0,0.0,100,0.00,,,0.00,,2013-05-08 00:11:00,
2013-05-07 17:32:00,71.0,71.0,-100.00,ENE,63,0.0,0.0,100,0.00,,,0.00,,2013-05-08 00:32:00,
2013-05-07 17:41:00,72.0,72.0,-100.00,ENE,63,0.0,0.0,100,0.00,,,0.00,,2013-05-08 00:41:00,
2013-05-07 18:01:00,72.0,72.0,-100.00,ENE,63,0.0,0.0,100,0.00,,,0.00,,2013-05-08 01:01:00,
2013-05-07 18:11:00,71.0,71.0,-100.00,ENE,63,0.0,0.0,100,0.00,,,0.00,,2013-05-08 01:11:00,
2013-05-07 18:31:00,71.0,71.0,-100.00,ENE,63,0.0,0.0,100,0.00,,,0.00,,2013-05-08 01:31:00,
2013-05-07 18:42:00,71.0,71.0,-100.00,ENE,63,0.0,0.0,100,0.00,,,0.00,,2013-05-08 01:42:00,
2013-05-07 19:01:00,69.0,69.0,-100.00,ENE,63,0.0,0.0,100,0.00,,,0.00,,2013-05-08 02:01:00,
2013-05-07 19:31:00,68.0,68.0,-100.00,ENE,63,0.0,0.0,100,0.00,,,0.00,,2013-05-08 02:31:00,
2013-05-07 19:42:00,67.0,67.0,-100.00,ENE,63,0.0,0.0,100,0.00,,,0.00,,2013-05-08 02:42:00,
2013-05-07 19:52:00,67.0,67.0,-100.00,ENE,63,0.0,0.0,100,0.00,,,0.00,,2013-05-08 02:52:00,
2013-05-07 20:01:00,65.0,65.0,-100.00,ENE,63,0.0,0.0,100,0.00,,,0.00,,2013-05-08 03:01:00,
2013-05-07 20:21:00,64.0,64.0,-100.00,ENE,63,0.0,0.0,100,0.00,,,0.00,,2013-05-08 03:21:00,
2013-05-07 20:32:00,63.0,63.0,-100.00,ENE,63,0.0,0.0,100,0.00,,,0.00,,2013-05-08 03:32:00,
2013-05-07 20:52:00,62.0,62.0,-100.00,ENE,63,0.0,0.0,100,0.00,,,0.00,,2013-05-08 03:52:00,
2013-05-07 21:02:00,61.0,61.0,-100.00,ENE,63,0.0,0.0,100,0.00,,,0.00,,2013-05-08 04:02:00,
2013-05-07 21:22:00,59.0,59.0,-100.00,ENE,63,0.0,0.0,100,0.00,,,0.00,,2013-05-08 04:22:00,
2013-05-07 21:32:00,58.0,58.0,-100.00,ENE,63,0.0,0.0,100,0.00,,,0.00,,2013-05-08 04:32:00,
2013-05-07 21:42:00,58.0,58.0,-100.00,ENE,63,0.0,0.0,100,0.00,,,0.00,,2013-05-08 04:42:00,
2013-05-07 21:52:00,56.0,56.0,-100.00,ENE,63,0.0,0.0,100,0.00,,,0.00,,2013-05-08 04:52:00,
2013-05-07 22:02:00,55.0,55.0,-100.00,ENE,63,0.0,0.0,100,0.00,,,0.00,,2013-05-08 05:02:00,
2013-05-07 22:12:00,55.0,55.0,-100.00,ENE,63,0.0,0.0,100,0.00,,,0.00,,2013-05-08 05:12:00,
2013-05-07 22:22:00,55.0,55.0,-100.00,ENE,63,0.0,0.0,100,0.00,,,0.00,,2013-05-08 05:22:00,
2013-05-07 22:32:00,54.0,54.0,-100.00,ENE,63,0.0,0.0,100,0.00,,,0.00,,2013-05-08 05:32:00,
2013-05-07 22:42:00,54.0,54.0,-100.00,ENE,63,0.0,0.0,100,0.00,,,0.00,,2013-05-08 05:42:00,
2013-05-07 22:52:00,53.0,53.0,-100.00,ENE,63,0.0,0.0,100,0.00,,,0.00,,2013-05-08 05:52:00,
2013-05-07 23:01:00,53.0,53.0,-100.00,ENE,63,0.0,0.0,100,0.00,,,0.00,,2013-05-08 06:01:00,
2013-05-07 23:11:00,53.0,53.0,-100.00,ENE,63,0.0,0.0,100,0.00,,,0.00,,2013-05-08 06:11:00,
2013-05-07 23:21:00,52.0,52.0,-100.00,ENE,63,0.0,0.0,100,0.00,,,0.00,,2013-05-08 06:21:00,
2013-05-07 23:31:00,52.0,52.0,-100.00,ENE,63,0.0,0.0,100,0.00,,,0.00,,2013-05-08 06:31:00,
2013-05-07 23:41:00,52.0,52.0,-100.00,ENE,63,0.0,0.0,100,0.00,,,0.00,,2013-05-08 06:41:00,
2013-05-07 23:52:00,51.0,51.0,-100.00,ENE,63,0.0,0.0,100,0.00,,,0.00,,2013-05-08 06:52:00,